Time;durP1;ratioP1;P1;durP2;ratioP2;P2;SDS_P1;SDS_P2;PMS_P1;PMS_P2;Temp;Humidity;BMP_temperature;BMP_pressure;BME280_temperature;BME280_humidity;BME280_pressure;Samples;Min_cycle;Max_cycle;Signal;HPM_P1;HPM_P2
2022/07/31 00:00:10;;;;;;;19.45;9.07;;;16.20;99.90;;;;;;5064424;28;20035;-77
2022/07/31 00:02:36;;;;;;;12.73;8.15;;;16.10;99.90;;;;;;5061916;28;20116;-76
2022/07/31 00:05:03;;;;;;;20.40;9.65;;;16.10;99.90;;;;;;5063180;28;20120;-75
2022/07/31 00:07:28;;;;;;;12.90;9.45;;;16.10;99.90;;;;;;5048726;28;20463;-76
2022/07/31 00:09:55;;;;;;;12.65;9.65;;;16.10;99.90;;;;;;5063268;28;20040;-75
2022/07/31 00:12:21;;;;;;;13.30;9.45;;;16.10;99.90;;;;;;5060705;28;20047;-74
2022/07/31 00:14:47;;;;;;;14.23;9.75;;;16.10;99.90;;;;;;5061724;28;20397;-77
2022/07/31 00:17:13;;;;;;;13.70;10.57;;;16.10;99.90;;;;;;5063391;28;20048;-74
2022/07/31 00:19:40;;;;;;;19.13;10.27;;;16.10;99.90;;;;;;5063516;28;20032;-76
2022/07/31 00:22:06;;;;;;;14.38;10.60;;;16.10;99.90;;;;;;5065495;28;20028;-73
2022/07/31 00:24:32;;;;;;;20.80;10.52;;;16.10;99.90;;;;;;5064740;28;20063;-74
2022/07/31 00:26:58;;;;;;;12.85;9.90;;;16.20;99.90;;;;;;5065470;28;20029;-73
2022/07/31 00:29:24;;;;;;;13.43;9.05;;;16.10;99.90;;;;;;5065196;28;20031;-75
2022/07/31 00:31:49;;;;;;;15.60;10.10;;;16.10;99.90;;;;;;5063444;28;20032;-76
2022/07/31 00:34:15;;;;;;;19.35;10.27;;;16.10;99.90;;;;;;5065926;28;20032;-74
2022/07/31 00:36:41;;;;;;;14.88;10.73;;;16.00;99.90;;;;;;5068961;28;20074;-74
2022/07/31 00:39:09;;;;;;;13.07;9.90;;;16.00;99.90;;;;;;5065778;28;20386;-75
2022/07/31 00:41:42;;;;;;;14.23;10.73;;;15.90;99.90;;;;;;5067789;28;20024;-76
2022/07/31 00:44:10;;;;;;;13.65;10.13;;;15.80;99.90;;;;;;5046319;28;20466;-74
2022/07/31 00:46:35;;;;;;;14.82;9.60;;;15.80;99.90;;;;;;5045887;28;20680;-77
2022/07/31 00:49:01;;;;;;;13.93;9.82;;;15.80;99.90;;;;;;5062928;28;20028;-73
2022/07/31 00:51:27;;;;;;;16.02;9.80;;;15.90;99.90;;;;;;5062207;28;20182;-76
2022/07/31 00:53:53;;;;;;;13.18;9.88;;;15.90;99.90;;;;;;5063429;28;20050;-74
2022/07/31 00:56:19;;;;;;;12.07;9.05;;;15.90;99.90;;;;;;5062521;28;20024;-76
2022/07/31 00:58:44;;;;;;;15.43;9.80;;;15.90;99.90;;;;;;5064009;28;20039;-76
2022/07/31 01:01:10;;;;;;;11.85;9.57;;;15.80;99.90;;;;;;5064522;28;20107;-74
2022/07/31 01:03:35;;;;;;;11.82;9.18;;;15.70;99.90;;;;;;5065280;28;20060;-74
2022/07/31 01:06:02;;;;;;;12.27;10.05;;;15.60;99.90;;;;;;5064864;28;20055;-71
2022/07/31 01:08:28;;;;;;;16.58;9.52;;;15.60;99.90;;;;;;5062600;28;20033;-75
2022/07/31 01:11:10;;;;;;;13.98;9.85;;;15.60;99.90;;;;;;5062070;28;20390;-76
2022/07/31 01:14:00;;;;;;;13.57;9.98;;;15.60;99.90;;;;;;5061408;28;20159;-75
2022/07/31 01:16:34;;;;;;;13.35;9.35;;;15.50;99.90;;;;;;5049321;28;20048;-76
2022/07/31 01:19:10;;;;;;;14.25;9.90;;;15.50;99.90;;;;;;5063734;28;20071;-74
2022/07/31 01:22:07;;;;;;;15.68;10.23;;;15.70;99.90;;;;;;5063075;28;20033;-75
2022/07/31 01:25:06;;;;;;;14.50;10.30;;;15.60;99.90;;;;;;5048193;28;20033;-76
2022/07/31 01:27:56;;;;;;;13.23;9.82;;;15.50;99.90;;;;;;5056390;28;20033;-71
2022/07/31 01:30:26;;;;;;;17.02;10.02;;;15.50;99.90;;;;;;5065020;28;20101;-76
2022/07/31 01:32:55;;;;;;;13.68;9.80;;;15.40;99.90;;;;;;5067285;28;20048;-76
2022/07/31 01:35:31;;;;;;;12.80;9.57;;;15.50;99.90;;;;;;5063109;28;20028;-76
2022/07/31 01:38:22;;;;;;;14.32;10.55;;;15.50;99.90;;;;;;5066578;28;20050;-75
2022/07/31 01:40:58;;;;;;;13.40;9.57;;;15.50;99.90;;;;;;5062412;28;20047;-75
2022/07/31 01:43:46;;;;;;;18.25;10.75;;;15.50;99.90;;;;;;5067687;28;20310;-75
2022/07/31 01:46:15;;;;;;;18.00;10.60;;;15.50;99.90;;;;;;5063302;28;20119;-74
2022/07/31 01:48:42;;;;;;;13.82;10.82;;;15.50;99.90;;;;;;5065165;28;20086;-74
2022/07/31 01:51:10;;;;;;;11.98;9.98;;;15.40;99.90;;;;;;5066220;28;20083;-74
2022/07/31 01:53:38;;;;;;;17.60;10.57;;;15.30;99.90;;;;;;5066418;28;20133;-75
2022/07/31 01:56:05;;;;;;;12.82;10.40;;;15.30;99.90;;;;;;5068828;28;20016;-72
2022/07/31 01:58:37;;;;;;;19.27;11.10;;;15.30;99.90;;;;;;5071997;28;20020;-75
2022/07/31 02:01:04;;;;;;;17.23;10.75;;;15.30;99.90;;;;;;5068499;28;20045;-71
2022/07/31 02:03:32;;;;;;;14.77;10.88;;;15.20;99.90;;;;;;5067674;28;20445;-74
2022/07/31 02:06:00;;;;;;;14.88;11.27;;;15.20;99.90;;;;;;5067777;28;20032;-73
2022/07/31 02:08:26;;;;;;;14.55;10.88;;;15.10;99.90;;;;;;5065012;28;20039;-74
2022/07/31 02:10:53;;;;;;;15.10;10.32;;;15.00;99.90;;;;;;5067265;28;20028;-73
2022/07/31 02:13:20;;;;;;;13.13;10.52;;;15.00;99.90;;;;;;5069710;28;20025;-74
2022/07/31 02:15:47;;;;;;;18.27;10.25;;;15.10;99.90;;;;;;5067589;28;20130;-75
2022/07/31 02:18:14;;;;;;;17.42;11.07;;;15.10;99.90;;;;;;5068317;28;20024;-74
2022/07/31 02:20:41;;;;;;;14.50;11.18;;;15.20;99.90;;;;;;5066198;28;20032;-74
2022/07/31 02:23:07;;;;;;;20.15;11.25;;;15.20;99.90;;;;;;5066268;28;20028;-73
2022/07/31 02:25:35;;;;;;;15.57;11.55;;;15.20;99.90;;;;;;5066353;28;20370;-74
2022/07/31 02:28:06;;;;;;;16.60;11.25;;;15.10;99.90;;;;;;5067685;28;20101;-76
2022/07/31 02:30:34;;;;;;;15.65;11.75;;;15.00;99.90;;;;;;5067170;28;20122;-75
2022/07/31 02:33:02;;;;;;;13.90;11.10;;;14.90;99.90;;;;;;5071107;28;20055;-75
2022/07/31 02:35:29;;;;;;;14.40;11.23;;;14.80;99.90;;;;;;5066547;28;20059;-76
2022/07/31 02:37:55;;;;;;;13.35;10.45;;;14.80;99.90;;;;;;5062568;28;20055;-75
2022/07/31 02:40:24;;;;;;;17.58;11.10;;;14.80;99.90;;;;;;5065293;28;20035;-75
2022/07/31 02:42:51;;;;;;;17.00;10.65;;;14.70;99.90;;;;;;5069152;28;20118;-75
2022/07/31 02:45:18;;;;;;;14.93;10.48;;;14.70;99.90;;;;;;5070305;28;20082;-74
2022/07/31 02:47:44;;;;;;;16.98;11.48;;;14.70;99.90;;;;;;5068758;28;20082;-74
2022/07/31 02:50:11;;;;;;;15.05;10.80;;;14.70;99.90;;;;;;5065255;28;20040;-72
2022/07/31 02:52:37;;;;;;;23.77;10.48;;;14.70;99.90;;;;;;5065426;28;20040;-75
2022/07/31 02:55:04;;;;;;;16.02;11.00;;;14.70;99.90;;;;;;5069281;28;20032;-75
2022/07/31 02:57:29;;;;;;;17.38;10.73;;;14.60;99.90;;;;;;5065429;28;20075;-76
2022/07/31 02:59:55;;;;;;;17.63;10.65;;;14.60;99.90;;;;;;5069518;28;20060;-75
2022/07/31 03:02:21;;;;;;;13.48;10.82;;;14.60;99.90;;;;;;5050317;28;20028;-75
2022/07/31 03:04:47;;;;;;;13.07;10.43;;;14.50;99.90;;;;;;5069627;28;20033;-73
2022/07/31 03:07:16;;;;;;;15.18;11.02;;;14.50;99.90;;;;;;5052505;28;20027;-75
2022/07/31 03:09:42;;;;;;;18.63;10.23;;;14.40;99.90;;;;;;5078527;28;20063;-76
2022/07/31 03:12:07;;;;;;;18.90;10.25;;;14.40;99.90;;;;;;5067721;28;20036;-72
2022/07/31 03:14:35;;;;;;;18.05;10.80;;;14.40;99.90;;;;;;5069298;28;20104;-74
2022/07/31 03:17:03;;;;;;;14.80;10.77;;;14.30;99.90;;;;;;5069066;28;20135;-75
2022/07/31 03:19:31;;;;;;;17.05;11.10;;;14.30;99.90;;;;;;5067482;28;20048;-73
2022/07/31 03:21:58;;;;;;;13.60;10.65;;;14.30;99.90;;;;;;5068776;28;20040;-74
2022/07/31 03:24:25;;;;;;;13.02;9.98;;;14.30;99.90;;;;;;5068781;28;20100;-75
2022/07/31 03:26:51;;;;;;;15.23;10.70;;;14.20;99.90;;;;;;5068694;28;20103;-75
2022/07/31 03:29:17;;;;;;;15.85;10.73;;;14.20;99.90;;;;;;5068489;28;20131;-74
2022/07/31 03:31:43;;;;;;;18.02;11.32;;;14.20;99.90;;;;;;5068368;28;20115;-76
2022/07/31 03:34:10;;;;;;;13.57;10.70;;;14.20;99.90;;;;;;5050776;28;20128;-73
2022/07/31 03:36:36;;;;;;;16.55;10.77;;;14.20;99.90;;;;;;5068446;28;20078;-75
2022/07/31 03:39:02;;;;;;;15.50;11.07;;;14.10;99.90;;;;;;5068549;28;20455;-74
2022/07/31 03:41:28;;;;;;;14.10;10.82;;;14.10;99.90;;;;;;5067147;28;20033;-74
2022/07/31 03:43:53;;;;;;;14.30;10.57;;;14.00;99.90;;;;;;5068396;28;20025;-75
2022/07/31 03:46:21;;;;;;;13.38;10.32;;;14.00;99.90;;;;;;5066108;28;20060;-76
2022/07/31 03:48:50;;;;;;;15.25;10.38;;;14.00;99.90;;;;;;5068254;28;20050;-73
2022/07/31 03:51:16;;;;;;;13.85;10.25;;;14.00;99.90;;;;;;5045237;28;20078;-75
2022/07/31 03:53:43;;;;;;;15.52;11.02;;;14.10;99.90;;;;;;5068480;28;20466;-74
2022/07/31 03:56:10;;;;;;;15.68;10.88;;;14.10;99.90;;;;;;5068029;28;20111;-71
2022/07/31 03:58:36;;;;;;;15.95;10.85;;;14.10;99.90;;;;;;5069050;28;20046;-73
2022/07/31 04:01:02;;;;;;;15.60;10.80;;;14.10;99.90;;;;;;5066819;28;20044;-75
2022/07/31 04:03:31;;;;;;;13.30;10.27;;;14.10;99.90;;;;;;5068153;28;20516;-74
2022/07/31 04:05:56;;;;;;;17.33;11.18;;;14.10;99.90;;;;;;5070770;28;20466;-75
2022/07/31 04:08:22;;;;;;;15.45;11.35;;;14.10;99.90;;;;;;5069088;28;20021;-74
2022/07/31 04:10:48;;;;;;;16.98;11.73;;;14.10;99.90;;;;;;5067068;28;20462;-74
2022/07/31 04:13:13;;;;;;;18.13;12.52;;;14.10;99.90;;;;;;5068527;28;20044;-72
2022/07/31 04:15:39;;;;;;;16.10;11.82;;;14.00;99.90;;;;;;5068493;28;20144;-75
2022/07/31 04:18:05;;;;;;;17.23;11.75;;;13.90;99.90;;;;;;5066974;28;20051;-72
2022/07/31 04:20:30;;;;;;;22.63;12.63;;;13.90;99.90;;;;;;5065721;28;20028;-74
2022/07/31 04:22:56;;;;;;;17.55;12.05;;;14.00;99.90;;;;;;5067297;28;20032;-73
2022/07/31 04:25:22;;;;;;;19.52;12.35;;;14.10;99.90;;;;;;5066402;28;20547;-73
2022/07/31 04:27:47;;;;;;;17.55;12.32;;;14.20;99.90;;;;;;5069294;28;20066;-73
2022/07/31 04:30:13;;;;;;;16.48;11.75;;;14.30;99.90;;;;;;5067398;28;20111;-73
2022/07/31 04:32:39;;;;;;;15.48;11.60;;;14.40;99.90;;;;;;5069042;28;20035;-76
2022/07/31 04:35:05;;;;;;;15.63;12.18;;;14.50;99.90;;;;;;5067564;28;20052;-73
2022/07/31 04:37:32;;;;;;;16.33;11.20;;;14.50;99.90;;;;;;5068453;28;20217;-73
2022/07/31 04:39:58;;;;;;;16.40;11.73;;;14.60;99.90;;;;;;5066467;28;20106;-75
2022/07/31 04:42:23;;;;;;;15.00;11.18;;;14.60;99.90;;;;;;5066797;28;20058;-74
2022/07/31 04:44:49;;;;;;;16.45;11.73;;;14.50;99.90;;;;;;5069153;28;20037;-75
2022/07/31 04:47:15;;;;;;;16.80;11.25;;;14.50;99.90;;;;;;5066892;28;20039;-72
2022/07/31 04:49:40;;;;;;;14.27;10.95;;;14.50;99.90;;;;;;5068432;28;20064;-76
2022/07/31 04:52:06;;;;;;;14.85;11.88;;;14.50;99.90;;;;;;5065359;28;20400;-73
2022/07/31 04:54:32;;;;;;;15.10;11.15;;;14.50;99.90;;;;;;5068123;28;20113;-76
2022/07/31 04:56:58;;;;;;;14.40;11.75;;;14.60;99.90;;;;;;5066050;28;20028;-74
2022/07/31 04:59:23;;;;;;;17.52;11.32;;;14.50;99.90;;;;;;5065771;28;20486;-73
2022/07/31 05:01:50;;;;;;;16.95;12.30;;;14.60;99.90;;;;;;5065665;28;20038;-73
2022/07/31 05:04:17;;;;;;;18.38;11.82;;;14.80;99.90;;;;;;5051399;28;20039;-73
2022/07/31 05:06:48;;;;;;;17.05;11.13;;;15.00;99.90;;;;;;5059460;28;20035;-75
2022/07/31 05:09:16;;;;;;;17.60;10.60;;;15.20;99.90;;;;;;5070054;28;20024;-73
2022/07/31 05:11:42;;;;;;;12.90;10.18;;;15.40;99.90;;;;;;5086209;28;20029;-76
2022/07/31 05:14:11;;;;;;;13.57;10.52;;;15.50;99.90;;;;;;5053360;28;20034;-75
2022/07/31 05:16:37;;;;;;;15.32;10.35;;;15.40;99.90;;;;;;5069610;28;20074;-75
2022/07/31 05:19:04;;;;;;;17.77;9.90;;;15.40;99.90;;;;;;5070140;28;20352;-74
2022/07/31 05:21:29;;;;;;;13.48;9.75;;;15.30;99.90;;;;;;5070757;28;20092;-74
2022/07/31 05:23:57;;;;;;;15.15;9.85;;;15.30;99.90;;;;;;5068998;28;20730;-75
2022/07/31 05:26:23;;;;;;;14.50;10.50;;;15.20;99.90;;;;;;5068120;28;20210;-74
2022/07/31 05:28:51;;;;;;;14.65;10.68;;;15.20;99.90;;;;;;5068112;28;20078;-75
2022/07/31 05:31:18;;;;;;;16.13;11.07;;;15.30;99.90;;;;;;5069988;28;20497;-71
2022/07/31 05:33:45;;;;;;;14.88;10.90;;;15.30;99.90;;;;;;5067616;28;20505;-75
2022/07/31 05:36:11;;;;;;;15.07;11.32;;;15.30;99.90;;;;;;5066355;28;20463;-76
2022/07/31 05:38:37;;;;;;;14.25;11.35;;;15.40;99.90;;;;;;5067748;28;20035;-74
2022/07/31 05:41:03;;;;;;;15.80;10.65;;;15.60;99.90;;;;;;5067211;28;20028;-74
2022/07/31 05:43:28;;;;;;;15.75;11.45;;;15.80;99.90;;;;;;5064675;28;20036;-73
2022/07/31 05:45:54;;;;;;;15.75;11.48;;;16.00;99.90;;;;;;5065577;28;20039;-75
2022/07/31 05:48:20;;;;;;;17.80;11.07;;;16.20;99.90;;;;;;5067170;28;20032;-76
2022/07/31 05:50:48;;;;;;;21.38;10.60;;;16.30;99.90;;;;;;5068239;28;20102;-75
2022/07/31 05:53:14;;;;;;;12.23;9.70;;;16.60;99.90;;;;;;5068996;28;20032;-76
2022/07/31 05:55:44;;;;;;;19.85;11.60;;;16.80;99.90;;;;;;5068180;28;20165;-75
2022/07/31 05:58:11;;;;;;;14.98;11.23;;;17.00;99.90;;;;;;5065604;28;20078;-74
2022/07/31 06:00:37;;;;;;;16.17;10.75;;;17.20;99.90;;;;;;5064118;28;20036;-72
2022/07/31 06:03:04;;;;;;;16.48;11.25;;;17.40;99.90;;;;;;5066699;28;20028;-75
2022/07/31 06:05:30;;;;;;;23.38;12.48;;;17.60;99.90;;;;;;5065467;28;20390;-73
2022/07/31 06:08:00;;;;;;;15.45;11.80;;;17.80;99.90;;;;;;5069804;28;20112;-74
2022/07/31 06:10:26;;;;;;;16.88;11.98;;;18.00;99.90;;;;;;5067206;28;20718;-73
2022/07/31 06:12:52;;;;;;;23.20;11.70;;;18.20;99.90;;;;;;5068457;28;20048;-75
2022/07/31 06:15:18;;;;;;;13.70;11.55;;;18.40;99.90;;;;;;5073418;28;20033;-71
2022/07/31 06:17:45;;;;;;;17.83;11.48;;;18.60;99.90;;;;;;5048157;28;20529;-75
2022/07/31 06:20:11;;;;;;;15.82;11.52;;;18.80;99.90;;;;;;5069182;28;20067;-74
2022/07/31 06:22:38;;;;;;;16.58;11.05;;;18.90;99.90;;;;;;5067105;28;20479;-73
2022/07/31 06:25:05;;;;;;;16.27;10.85;;;18.90;99.90;;;;;;5071255;28;20021;-75
2022/07/31 06:27:31;;;;;;;14.40;9.93;;;18.80;99.90;;;;;;5067975;28;20021;-76
2022/07/31 06:29:57;;;;;;;13.52;10.30;;;18.90;99.90;;;;;;5069374;28;20033;-73
2022/07/31 06:32:23;;;;;;;15.30;9.60;;;19.10;99.90;;;;;;5070720;28;20025;-76
2022/07/31 06:34:49;;;;;;;13.07;10.30;;;19.20;99.90;;;;;;5069880;28;20474;-76
2022/07/31 06:37:14;;;;;;;12.82;10.48;;;19.30;99.90;;;;;;5070516;28;20032;-75
2022/07/31 06:39:40;;;;;;;12.07;9.63;;;19.20;99.90;;;;;;5068259;28;20478;-72
2022/07/31 06:42:06;;;;;;;13.48;8.98;;;19.30;99.90;;;;;;5068126;28;20821;-75
2022/07/31 06:44:33;;;;;;;10.25;7.50;;;19.30;99.90;;;;;;5066970;28;20028;-75
2022/07/31 06:46:59;;;;;;;12.88;8.50;;;19.40;99.90;;;;;;5068894;28;20059;-74
2022/07/31 06:49:24;;;;;;;9.50;7.22;;;19.40;99.90;;;;;;5067584;28;20059;-76
2022/07/31 06:51:51;;;;;;;13.27;7.22;;;19.60;99.90;;;;;;5066515;28;20044;-73
2022/07/31 06:54:17;;;;;;;11.27;7.18;;;19.70;99.90;;;;;;5068736;28;20119;-75
2022/07/31 06:56:43;;;;;;;9.73;6.00;;;19.80;99.90;;;;;;5069580;28;20074;-76
2022/07/31 06:59:09;;;;;;;12.60;6.15;;;19.90;99.90;;;;;;5069071;28;20458;-75
2022/07/31 07:01:35;;;;;;;9.50;5.85;;;19.90;99.90;;;;;;5069327;28;20047;-75
2022/07/31 07:04:01;;;;;;;9.07;5.07;;;19.90;99.90;;;;;;5069519;28;20036;-75
2022/07/31 07:06:26;;;;;;;10.65;4.72;;;19.80;99.90;;;;;;5068621;28;20036;-73
2022/07/31 07:08:52;;;;;;;7.57;4.88;;;19.90;99.90;;;;;;5070771;28;20028;-74
2022/07/31 07:11:19;;;;;;;11.20;4.80;;;20.00;99.90;;;;;;5089519;28;20081;-73
2022/07/31 07:13:45;;;;;;;9.80;4.68;;;20.10;99.90;;;;;;5067873;28;20056;-74
2022/07/31 07:16:11;;;;;;;8.82;4.75;;;20.20;99.90;;;;;;5069600;28;20495;-73
2022/07/31 07:18:37;;;;;;;8.65;4.38;;;20.30;99.90;;;;;;5068307;28;20028;-72
2022/07/31 07:21:03;;;;;;;10.13;4.75;;;20.30;99.90;;;;;;5067949;28;20028;-74
2022/07/31 07:23:29;;;;;;;7.55;4.40;;;20.30;99.90;;;;;;5067268;28;20406;-74
2022/07/31 07:25:55;;;;;;;7.55;4.93;;;20.30;99.90;;;;;;5067230;28;20029;-72
2022/07/31 07:28:21;;;;;;;7.53;4.57;;;20.30;99.90;;;;;;5062255;28;20040;-72
2022/07/31 07:30:46;;;;;;;5.70;4.28;;;20.30;99.90;;;;;;5066215;28;20033;-73
2022/07/31 07:33:12;;;;;;;6.63;4.20;;;20.40;99.90;;;;;;5067394;28;20509;-72
2022/07/31 07:35:38;;;;;;;8.25;4.40;;;20.40;99.90;;;;;;5061983;28;20167;-74
2022/07/31 07:38:04;;;;;;;12.63;4.40;;;20.50;99.90;;;;;;5068642;28;20039;-74
2022/07/31 07:40:30;;;;;;;13.13;4.43;;;20.50;99.90;;;;;;5067122;28;20043;-73
2022/07/31 07:42:56;;;;;;;5.65;4.32;;;20.60;99.90;;;;;;5068121;28;20037;-73
2022/07/31 07:45:21;;;;;;;9.48;4.88;;;20.80;99.90;;;;;;5067703;28;20150;-72
2022/07/31 07:47:47;;;;;;;7.30;4.07;;;20.80;99.90;;;;;;5067270;28;20036;-74
2022/07/31 07:50:14;;;;;;;7.72;4.35;;;20.80;99.90;;;;;;5067493;28;20437;-75
2022/07/31 07:52:40;;;;;;;5.95;4.30;;;20.90;99.90;;;;;;5066571;28;20033;-74
2022/07/31 07:55:07;;;;;;;9.50;4.40;;;21.00;99.90;;;;;;5066141;28;20501;-71
2022/07/31 07:57:34;;;;;;;8.63;4.40;;;21.10;99.90;;;;;;5063764;28;20025;-73
2022/07/31 08:00:02;;;;;;;7.60;4.47;;;21.10;99.90;;;;;;5051370;28;20466;-74
2022/07/31 08:02:28;;;;;;;11.40;4.53;;;21.00;99.90;;;;;;5065842;28;20029;-71
2022/07/31 08:04:54;;;;;;;7.40;4.30;;;21.00;99.90;;;;;;5067664;28;20033;-73
2022/07/31 08:07:34;;;;;;;5.88;4.75;;;21.00;99.90;;;;;;5063254;28;20028;-73
2022/07/31 08:10:00;;;;;;;5.90;4.38;;;21.00;99.90;;;;;;5068081;28;20039;-72
2022/07/31 08:12:26;;;;;;;7.20;4.78;;;21.10;99.90;;;;;;5065531;28;20051;-72
2022/07/31 08:14:53;;;;;;;4.85;3.97;;;21.20;99.90;;;;;;5067714;28;20091;-72
2022/07/31 08:17:19;;;;;;;4.68;3.53;;;21.40;99.90;;;;;;5067884;28;20047;-73
2022/07/31 08:19:45;;;;;;;8.93;4.07;;;21.40;99.90;;;;;;5064229;28;20121;-74
2022/07/31 08:22:11;;;;;;;8.70;4.20;;;21.60;99.90;;;;;;5066863;28;20060;-73
2022/07/31 08:24:37;;;;;;;4.90;3.83;;;21.70;99.90;;;;;;5065784;28;20032;-74
2022/07/31 08:29:47;;;;;;;11.15;4.40;;;22.00;99.90;;;;;;5066527;28;20161;-73
2022/07/31 08:32:13;;;;;;;6.53;4.43;;;22.10;99.90;;;;;;5067435;28;20127;-73
2022/07/31 08:34:39;;;;;;;6.03;4.00;;;22.20;99.90;;;;;;5066963;28;20040;-73
2022/07/31 08:37:05;;;;;;;6.25;4.25;;;22.30;99.90;;;;;;5067221;28;20037;-72
2022/07/31 08:39:35;;;;;;;5.65;4.43;;;22.40;99.90;;;;;;5070619;28;20029;-73
2022/07/31 08:42:06;;;;;;;4.77;3.80;;;22.40;99.50;;;;;;5053954;28;20063;-74
2022/07/31 08:44:35;;;;;;;5.60;3.78;;;22.50;99.90;;;;;;5071042;28;20115;-72
2022/07/31 08:47:04;;;;;;;6.95;4.07;;;22.60;99.50;;;;;;5071471;28;20094;-73
2022/07/31 08:49:35;;;;;;;10.00;4.07;;;22.70;99.90;;;;;;5070064;28;20036;-72
2022/07/31 08:52:01;;;;;;;4.63;3.83;;;22.90;98.50;;;;;;5071171;28;20048;-72
2022/07/31 08:54:28;;;;;;;6.65;3.83;;;23.10;98.60;;;;;;5070800;28;20024;-73
2022/07/31 08:56:54;;;;;;;5.07;4.00;;;23.20;99.90;;;;;;5052843;28;20481;-73
2022/07/31 08:59:21;;;;;;;5.25;4.20;;;23.40;98.30;;;;;;5070065;28;20128;-73
2022/07/31 09:01:46;;;;;;;4.80;3.92;;;23.60;98.20;;;;;;5069118;28;20495;-72
2022/07/31 09:04:12;;;;;;;4.88;4.03;;;23.60;97.10;;;;;;5054652;28;20031;-75
2022/07/31 09:06:38;;;;;;;6.82;4.38;;;23.70;96.00;;;;;;5070270;28;20052;-74
2022/07/31 09:09:04;;;;;;;8.77;4.38;;;23.70;95.50;;;;;;5074917;28;20031;-75
2022/07/31 09:11:30;;;;;;;7.63;4.30;;;23.60;97.30;;;;;;5068905;28;20041;-73
2022/07/31 09:13:58;;;;;;;6.93;4.20;;;23.50;96.80;;;;;;5070918;28;20083;-74
2022/07/31 09:16:25;;;;;;;8.25;4.25;;;23.50;97.60;;;;;;5068828;28;20044;-72
2022/07/31 09:19:02;;;;;;;8.68;4.45;;;23.60;97.80;;;;;;5071475;28;20047;-75
2022/07/31 09:21:41;;;;;;;6.47;4.18;;;23.70;96.60;;;;;;5060215;28;20418;-72
2022/07/31 09:24:09;;;;;;;10.35;4.38;;;23.60;98.00;;;;;;5066830;28;20051;-74
2022/07/31 09:26:35;;;;;;;4.85;4.30;;;23.70;97.80;;;;;;5067644;28;20769;-74
2022/07/31 09:29:07;;;;;;;9.15;4.70;;;23.70;96.90;;;;;;5070498;28;20036;-74
2022/07/31 09:31:34;;;;;;;8.85;4.22;;;23.70;98.30;;;;;;5068369;28;20058;-74
2022/07/31 09:34:00;;;;;;;7.72;5.03;;;23.60;95.80;;;;;;5069237;28;20113;-75
2022/07/31 09:36:26;;;;;;;10.55;4.57;;;23.70;95.80;;;;;;5069660;28;20089;-75
2022/07/31 09:38:52;;;;;;;5.60;4.07;;;23.70;95.20;;;;;;5069243;28;20557;-75
2022/07/31 09:41:20;;;;;;;5.15;4.07;;;23.80;96.90;;;;;;5069041;28;20033;-73
2022/07/31 09:44:01;;;;;;;6.43;4.20;;;24.00;96.10;;;;;;5068165;28;20041;-76
2022/07/31 09:46:45;;;;;;;7.15;4.10;;;24.20;96.20;;;;;;5070289;28;20159;-71
2022/07/31 09:49:11;;;;;;;8.55;4.13;;;24.60;95.80;;;;;;5068858;28;20086;-72
2022/07/31 09:51:41;;;;;;;4.75;3.85;;;25.00;94.10;;;;;;5068878;28;20040;-72
2022/07/31 09:54:19;;;;;;;3.50;3.08;;;25.30;91.70;;;;;;5067617;28;20036;-72
2022/07/31 09:56:45;;;;;;;5.13;3.78;;;25.60;90.50;;;;;;5067739;28;20036;-75
2022/07/31 09:59:11;;;;;;;8.45;4.15;;;25.80;89.70;;;;;;5049941;28;20047;-72
2022/07/31 10:01:39;;;;;;;7.60;4.10;;;25.90;89.40;;;;;;5055009;28;20040;-73
2022/07/31 10:04:06;;;;;;;4.35;3.58;;;25.80;87.70;;;;;;5062069;28;20036;-75
2022/07/31 10:06:34;;;;;;;4.47;3.38;;;26.20;86.20;;;;;;5069292;28;20063;-74
2022/07/31 10:09:02;;;;;;;4.43;3.30;;;26.40;81.70;;;;;;5068946;28;20036;-73
2022/07/31 10:11:30;;;;;;;8.80;2.75;;;26.50;80.10;;;;;;5053055;28;20082;-73
2022/07/31 10:13:59;;;;;;;5.45;2.70;;;26.50;72.30;;;;;;5051302;28;20506;-73
2022/07/31 10:16:28;;;;;;;5.93;2.75;;;26.50;73.10;;;;;;5071307;28;20391;-71
2022/07/31 10:18:59;;;;;;;6.25;2.70;;;26.80;72.60;;;;;;5069517;28;20746;-73
2022/07/31 10:21:32;;;;;;;11.40;3.17;;;27.00;68.80;;;;;;5070645;28;20074;-72
2022/07/31 10:23:59;;;;;;;4.40;2.97;;;27.00;69.20;;;;;;5069192;28;20521;-73
2022/07/31 10:26:25;;;;;;;4.95;3.38;;;26.90;71.80;;;;;;5070583;28;20222;-73
2022/07/31 10:28:51;;;;;;;3.67;2.80;;;26.80;70.80;;;;;;5070157;28;20162;-73
2022/07/31 10:31:17;;;;;;;6.45;3.20;;;27.20;67.80;;;;;;5069063;28;20509;-74
2022/07/31 10:33:46;;;;;;;7.05;2.75;;;27.30;68.50;;;;;;5067997;28;20378;-72
2022/07/31 10:36:19;;;;;;;3.15;2.47;;;27.50;67.00;;;;;;5069130;28;20047;-72
2022/07/31 10:39:30;;;;;;;6.20;2.88;;;27.50;69.80;;;;;;5051929;28;20032;-71
2022/07/31 10:42:17;;;;;;;3.92;2.38;;;27.30;66.90;;;;;;5045326;28;20538;-71
2022/07/31 10:44:53;;;;;;;4.10;2.67;;;27.00;65.10;;;;;;5054468;28;20454;-73
2022/07/31 10:47:19;;;;;;;5.00;2.83;;;26.90;69.50;;;;;;5068928;28;20461;-72
2022/07/31 10:49:48;;;;;;;8.38;2.90;;;27.30;66.00;;;;;;5069262;28;20032;-72
2022/07/31 10:52:33;;;;;;;4.80;3.20;;;27.50;67.40;;;;;;5067545;28;20035;-73
2022/07/31 10:55:00;;;;;;;8.75;3.00;;;27.60;66.60;;;;;;5069877;28;20074;-73
2022/07/31 10:57:32;;;;;;;3.95;2.78;;;27.60;61.90;;;;;;5068193;28;20036;-71
2022/07/31 11:00:28;;;;;;;3.33;2.70;;;27.70;62.10;;;;;;5069199;28;20127;-72
2022/07/31 11:02:53;;;;;;;3.97;2.65;;;28.00;64.00;;;;;;5036508;28;20037;-71
2022/07/31 11:05:22;;;;;;;7.32;2.97;;;28.20;63.40;;;;;;5067967;28;20039;-71
2022/07/31 11:08:02;;;;;;;5.13;3.40;;;28.30;64.30;;;;;;5069174;28;20035;-72
2022/07/31 11:10:29;;;;;;;7.60;2.63;;;28.20;65.90;;;;;;5069028;28;20032;-71
2022/07/31 11:13:03;;;;;;;5.13;2.60;;;28.30;62.50;;;;;;5069379;28;20016;-72
2022/07/31 11:15:29;;;;;;;3.33;2.50;;;28.30;62.50;;;;;;5068912;28;20036;-74
2022/07/31 11:17:55;;;;;;;2.45;2.25;;;28.50;62.20;;;;;;5068778;28;20102;-72
2022/07/31 11:20:27;;;;;;;4.45;2.78;;;28.40;61.10;;;;;;5068427;28;20052;-72
2022/07/31 11:23:05;;;;;;;3.65;2.92;;;28.40;60.50;;;;;;5069171;28;20047;-72
2022/07/31 11:25:33;;;;;;;3.65;2.50;;;28.20;58.60;;;;;;5068874;28;20080;-71
2022/07/31 11:28:28;;;;;;;4.78;2.85;;;27.80;60.60;;;;;;5068639;28;20059;-72
2022/07/31 11:31:03;;;;;;;5.15;2.72;;;28.10;63.30;;;;;;5027309;28;20530;-73
2022/07/31 11:33:40;;;;;;;4.18;2.50;;;28.30;60.30;;;;;;5051652;28;20048;-71
2022/07/31 11:36:10;;;;;;;5.35;2.38;;;28.60;59.70;;;;;;5067189;28;20032;-71
2022/07/31 11:38:37;;;;;;;;;;;28.90;58.90;;;;;;5068879;28;20025;-70
2022/07/31 11:41:04;;;;;;;2.88;2.28;;;29.40;62.60;;;;;;5068693;28;20007;-72
2022/07/31 11:43:30;;;;;;;4.65;2.70;;;29.60;58.30;;;;;;5066988;28;20115;-73
2022/07/31 11:45:57;;;;;;;3.58;3.10;;;29.50;59.70;;;;;;5068079;28;20485;-73
2022/07/31 11:48:24;;;;;;;3.20;2.80;;;28.80;58.60;;;;;;5062021;28;20108;-72
2022/07/31 11:50:50;;;;;;;5.47;2.88;;;28.40;58.70;;;;;;5066968;28;20039;-73
2022/07/31 11:53:17;;;;;;;9.63;2.88;;;28.50;59.70;;;;;;5068317;28;20045;-73
2022/07/31 11:55:49;;;;;;;3.65;2.80;;;28.70;62.40;;;;;;5068257;28;20432;-74
2022/07/31 11:58:16;;;;;;;4.53;2.95;;;28.80;62.20;;;;;;5068534;28;20032;-73
2022/07/31 12:00:46;;;;;;;4.40;2.55;;;28.90;60.30;;;;;;5068421;28;20396;-72
2022/07/31 12:03:12;;;;;;;4.45;2.75;;;29.00;59.80;;;;;;5068642;28;20028;-72
2022/07/31 12:05:49;;;;;;;3.88;2.88;;;28.60;59.30;;;;;;5066407;28;20035;-71
2022/07/31 12:08:16;;;;;;;5.20;2.95;;;28.40;60.60;;;;;;5066734;28;20029;-72
2022/07/31 12:10:43;;;;;;;4.97;2.65;;;28.10;61.20;;;;;;5068095;28;20036;-74
2022/07/31 12:13:14;;;;;;;6.88;2.65;;;28.10;59.30;;;;;;5068131;28;20028;-73
2022/07/31 12:15:41;;;;;;;3.47;2.85;;;28.00;61.30;;;;;;5065056;28;20390;-70
2022/07/31 12:18:07;;;;;;;5.18;2.70;;;27.90;61.70;;;;;;5068408;28;20485;-72
2022/07/31 12:20:33;;;;;;;4.05;2.80;;;27.80;63.90;;;;;;5067419;28;20037;-74
2022/07/31 12:23:00;;;;;;;3.60;2.40;;;27.80;61.60;;;;;;5067450;28;20021;-74
2022/07/31 12:25:26;;;;;;;3.75;2.83;;;27.70;63.90;;;;;;5068511;28;20043;-72
2022/07/31 12:27:53;;;;;;;3.70;2.45;;;27.60;61.70;;;;;;5068384;28;20041;-73
2022/07/31 12:30:21;;;;;;;8.23;2.20;;;27.50;62.00;;;;;;5067834;28;20063;-75
2022/07/31 12:32:47;;;;;;;2.80;2.47;;;27.60;62.90;;;;;;5068078;28;20048;-74
2022/07/31 12:35:13;;;;;;;4.10;2.50;;;27.80;63.40;;;;;;5067759;28;20031;-74
2022/07/31 12:37:47;;;;;;;4.70;2.28;;;28.30;61.50;;;;;;5068784;28;20040;-71
2022/07/31 12:40:27;;;;;;;3.50;2.60;;;28.50;60.50;;;;;;5066250;28;20056;-74
2022/07/31 12:42:53;;;;;;;3.95;2.80;;;28.40;64.70;;;;;;5067841;28;20086;-76
2022/07/31 12:45:50;;;;;;;5.70;2.70;;;28.30;59.80;;;;;;5068199;28;20409;-74